Time;durP1;ratioP1;P1;durP2;ratioP2;P2;SDS_P1;SDS_P2;PMS_P1;PMS_P2;Temp;Humidity;BMP_temperature;BMP_pressure;BME280_temperature;BME280_humidity;BME280_pressure;Samples;Min_cycle;Max_cycle;Signal;HPM_P1;HPM_P2
2022/11/15 00:01:42;;;;;;;25.23;13.77;;;;;;;;;;5069708;28;20648;-74
2022/11/15 00:04:08;;;;;;;20.25;10.52;;;;;;;;;;5066850;28;20025;-74
2022/11/15 00:06:34;;;;;;;28.95;11.82;;;;;;;;;;5068139;28;20107;-74
2022/11/15 00:09:01;;;;;;;22.38;10.52;;;;;;;;;;5067268;28;20054;-74
2022/11/15 00:11:27;;;;;;;22.95;10.82;;;;;;;;;;5067930;28;20048;-74
2022/11/15 00:14:02;;;;;;;19.35;10.23;;;;;;;;;;5066517;28;20033;-74
2022/11/15 00:16:28;;;;;;;19.45;8.63;;;;;;;;;;5068975;28;20036;-74
2022/11/15 00:18:54;;;;;;;14.82;7.00;;;;;;;;;;5063242;28;20086;-74
2022/11/15 00:21:20;;;;;;;13.30;6.22;;;;;;;;;;5065561;28;20051;-74
2022/11/15 00:23:46;;;;;;;13.38;5.55;;;;;;;;;;5068792;28;20024;-74
2022/11/15 00:26:12;;;;;;;14.80;6.35;;;;;;;;;;5068213;28;20044;-74
2022/11/15 00:28:38;;;;;;;14.20;6.18;;;;;;;;;;5069172;28;20103;-74
2022/11/15 00:31:05;;;;;;;13.50;5.20;;;;;;;;;;5063947;28;20752;-74
2022/11/15 00:33:31;;;;;;;11.10;5.22;;;;;;;;;;5064470;28;20470;-74
2022/11/15 00:36:09;;;;;;;13.60;5.80;;;;;;;;;;5069480;28;20189;-74
2022/11/15 00:38:35;;;;;;;13.23;5.50;;;;;;;;;;5070328;28;20052;-74
2022/11/15 00:41:02;;;;;;;11.65;5.80;;;;;;;;;;5065647;28;20207;-74
2022/11/15 00:43:28;;;;;;;19.15;7.55;;;;;;;;;;5069677;28;20024;-74
2022/11/15 00:45:54;;;;;;;12.57;6.72;;;;;;;;;;5061159;28;20080;-74
2022/11/15 00:48:20;;;;;;;11.38;6.43;;;;;;;;;;5066224;28;20706;-74
2022/11/15 00:50:46;;;;;;;51.35;23.83;;;;;;;;;;5070967;28;20132;-75
2022/11/15 00:53:12;;;;;;;84.72;37.95;;;;;;;;;;5062811;28;20482;-74
2022/11/15 00:55:38;;;;;;;67.47;32.78;;;;;;;;;;5065972;28;20119;-74
2022/11/15 00:58:04;;;;;;;62.72;29.38;;;;;;;;;;5067922;28;20115;-74
2022/11/15 01:00:30;;;;;;;38.80;18.48;;;;;;;;;;5068312;28;20111;-74
2022/11/15 01:02:56;;;;;;;34.95;15.57;;;;;;;;;;5068546;28;20059;-74
2022/11/15 01:05:22;;;;;;;45.03;22.25;;;;;;;;;;5066853;28;20107;-74
2022/11/15 01:07:51;;;;;;;38.53;19.30;;;;;;;;;;5067807;28;20024;-74
2022/11/15 01:10:17;;;;;;;29.33;12.88;;;;;;;;;;5065674;28;20033;-74
2022/11/15 01:12:43;;;;;;;27.60;12.73;;;;;;;;;;5064502;28;20035;-74
2022/11/15 01:15:09;;;;;;;30.40;13.30;;;;;;;;;;5063736;28;20611;-74
2022/11/15 01:17:35;;;;;;;55.42;22.88;;;;;;;;;;5066942;28;20032;-74
2022/11/15 01:20:01;;;;;;;67.47;30.23;;;;;;;;;;5067915;28;20082;-75
2022/11/15 01:22:27;;;;;;;71.85;34.38;;;;;;;;;;5065154;28;20036;-74
2022/11/15 01:24:53;;;;;;;78.68;34.85;;;;;;;;;;5069636;28;20036;-74
2022/11/15 01:27:19;;;;;;;79.05;34.65;;;;;;;;;;5050964;28;20434;-74
2022/11/15 01:29:45;;;;;;;67.15;29.45;;;;;;;;;;5067511;28;20031;-74
2022/11/15 01:32:11;;;;;;;46.25;20.77;;;;;;;;;;5072024;28;20036;-74
2022/11/15 01:34:37;;;;;;;38.88;18.02;;;;;;;;;;5067220;28;20028;-74
2022/11/15 01:37:03;;;;;;;24.30;12.00;;;;;;;;;;5063695;28;20107;-74
2022/11/15 01:39:29;;;;;;;29.83;13.95;;;;;;;;;;5056944;28;20039;-74
2022/11/15 01:41:55;;;;;;;15.48;7.95;;;;;;;;;;5065841;28;20040;-74
2022/11/15 01:44:34;;;;;;;10.70;5.55;;;;;;;;;;5067497;28;20066;-74
2022/11/15 01:47:00;;;;;;;12.45;5.03;;;;;;;;;;5065622;28;20056;-74
2022/11/15 01:49:27;;;;;;;10.95;4.88;;;;;;;;;;5068181;28;20020;-74
2022/11/15 01:51:54;;;;;;;8.68;3.85;;;;;;;;;;5066901;28;20102;-74
2022/11/15 01:54:22;;;;;;;8.65;3.95;;;;;;;;;;5059513;28;20416;-74
2022/11/15 01:56:53;;;;;;;9.50;3.90;;;;;;;;;;5057328;28;20044;-74
2022/11/15 01:59:20;;;;;;;10.15;3.53;;;;;;;;;;5059873;28;20056;-74
2022/11/15 02:01:46;;;;;;;9.07;3.80;;;;;;;;;;5064909;28;20036;-74
2022/11/15 02:04:14;;;;;;;10.88;2.90;;;;;;;;;;5067154;28;20374;-74
2022/11/15 02:06:41;;;;;;;5.03;2.20;;;;;;;;;;5062762;28;20389;-74
2022/11/15 02:09:07;;;;;;;8.23;3.30;;;;;;;;;;5060510;28;20415;-74
2022/11/15 02:11:33;;;;;;;6.43;3.00;;;;;;;;;;5067950;28;20493;-74
2022/11/15 02:14:00;;;;;;;9.43;3.90;;;;;;;;;;5065230;28;20039;-74
2022/11/15 02:16:47;;;;;;;7.25;3.45;;;;;;;;;;5065769;28;20125;-75
2022/11/15 02:19:13;;;;;;;10.82;4.57;;;;;;;;;;5064443;28;20904;-74
2022/11/15 02:21:47;;;;;;;7.70;3.42;;;;;;;;;;5063421;28;20037;-74
2022/11/15 02:24:25;;;;;;;8.57;3.15;;;;;;;;;;5064983;28;20032;-74
2022/11/15 02:26:57;;;;;;;8.57;3.75;;;;;;;;;;5062234;28;20028;-74
2022/11/15 02:29:33;;;;;;;11.10;3.70;;;;;;;;;;5069522;28;20035;-73
2022/11/15 02:32:19;;;;;;;8.45;3.20;;;;;;;;;;5063309;28;20041;-74
2022/11/15 02:34:48;;;;;;;7.22;3.35;;;;;;;;;;5066089;28;20055;-74
2022/11/15 02:37:20;;;;;;;9.75;4.40;;;;;;;;;;5061586;28;20118;-74
2022/11/15 02:39:46;;;;;;;6.20;2.67;;;;;;;;;;5063149;28;20429;-74
2022/11/15 02:45:04;;;;;;;11.27;3.60;;;;;;;;;;5063197;28;20078;-74
2022/11/15 02:47:32;;;;;;;5.75;2.45;;;;;;;;;;5067134;28;20052;-74
2022/11/15 02:49:59;;;;;;;6.93;2.88;;;;;;;;;;5063278;28;20040;-73
2022/11/15 02:52:26;;;;;;;6.72;3.10;;;;;;;;;;5069815;28;20150;-74
2022/11/15 02:54:54;;;;;;;6.75;3.10;;;;;;;;;;5067903;28;20020;-74
2022/11/15 02:57:22;;;;;;;7.55;4.55;;;;;;;;;;5068152;28;20635;-74
2022/11/15 02:59:57;;;;;;;4.70;1.60;;;;;;;;;;5070066;28;20029;-74
2022/11/15 03:02:29;;;;;;;4.25;1.42;;;;;;;;;;5065088;28;20039;-74
2022/11/15 03:04:58;;;;;;;6.75;2.22;;;;;;;;;;5067675;28;20386;-74
2022/11/15 03:07:29;;;;;;;6.07;2.42;;;;;;;;;;5069929;28;20025;-74
2022/11/15 03:10:10;;;;;;;6.05;2.85;;;;;;;;;;5071389;28;20354;-74
2022/11/15 03:12:48;;;;;;;6.50;3.20;;;;;;;;;;5062637;28;20500;-73
2022/11/15 03:15:43;;;;;;;5.95;3.10;;;;;;;;;;5072420;28;20045;-74
2022/11/15 03:18:36;;;;;;;7.65;2.42;;;;;;;;;;5009012;28;20078;-74
2022/11/15 03:21:04;;;;;;;8.32;3.28;;;;;;;;;;5053937;28;20045;-74
2022/11/15 03:23:31;;;;;;;9.93;3.88;;;;;;;;;;5062078;28;20056;-74
2022/11/15 03:25:58;;;;;;;8.57;3.28;;;;;;;;;;5062748;28;20037;-74
2022/11/15 03:28:28;;;;;;;5.93;3.17;;;;;;;;;;5067046;28;20025;-74
2022/11/15 03:30:55;;;;;;;14.38;6.05;;;;;;;;;;5067436;28;20101;-74
2022/11/15 03:33:22;;;;;;;4.88;1.75;;;;;;;;;;5069789;28;20036;-74
2022/11/15 03:35:48;;;;;;;4.60;1.25;;;;;;;;;;5068699;28;20037;-74
2022/11/15 03:38:17;;;;;;;7.25;1.73;;;;;;;;;;5066018;28;20029;-74
2022/11/15 03:40:46;;;;;;;10.18;4.03;;;;;;;;;;5063629;28;20040;-74
2022/11/15 03:43:30;;;;;;;8.35;3.97;;;;;;;;;;5063452;28;20155;-74
2022/11/15 03:46:01;;;;;;;9.98;5.30;;;;;;;;;;5070571;28;20060;-74
2022/11/15 03:48:30;;;;;;;8.30;4.55;;;;;;;;;;5069090;28;20052;-74
2022/11/15 03:50:56;;;;;;;11.50;5.68;;;;;;;;;;5057945;28;20079;-73
2022/11/15 03:53:22;;;;;;;7.55;4.32;;;;;;;;;;5069814;28;20065;-74
2022/11/15 03:55:48;;;;;;;10.07;5.18;;;;;;;;;;5075149;28;20035;-74
2022/11/15 03:58:14;;;;;;;9.73;5.75;;;;;;;;;;5069452;28;20033;-74
2022/11/15 04:00:40;;;;;;;9.75;5.03;;;;;;;;;;5071130;28;20469;-73
2022/11/15 04:03:07;;;;;;;4.97;1.40;;;;;;;;;;5070621;28;20070;-74
2022/11/15 04:05:33;;;;;;;4.15;1.67;;;;;;;;;;5061665;28;20032;-74
2022/11/15 04:07:59;;;;;;;6.45;3.10;;;;;;;;;;5065603;28;20039;-74
2022/11/15 04:10:25;;;;;;;8.75;4.30;;;;;;;;;;5062817;28;20070;-73
2022/11/15 04:12:52;;;;;;;8.05;4.95;;;;;;;;;;5058347;28;20024;-74
2022/11/15 04:15:19;;;;;;;8.93;4.70;;;;;;;;;;5065524;28;20029;-74
2022/11/15 04:17:50;;;;;;;11.10;5.50;;;;;;;;;;5070710;28;20032;-74
2022/11/15 04:25:50;;;;;;;14.98;8.30;;;;;;;;;;5063093;28;20114;-73
2022/11/15 04:28:16;;;;;;;8.45;4.07;;;;;;;;;;5065674;28;20027;-74
2022/11/15 04:30:42;;;;;;;7.03;2.58;;;;;;;;;;5067555;28;20119;-74
2022/11/15 04:33:08;;;;;;;4.82;1.38;;;;;;;;;;5070737;28;20033;-74
2022/11/15 04:35:34;;;;;;;6.85;3.05;;;;;;;;;;5067301;28;20033;-74
2022/11/15 04:38:00;;;;;;;7.82;2.90;;;;;;;;;;5068431;28;20032;-74
2022/11/15 04:40:26;;;;;;;7.80;2.45;;;;;;;;;;5066586;28;20037;-74
2022/11/15 04:42:53;;;;;;;6.10;2.70;;;;;;;;;;5071571;28;20090;-74
2022/11/15 04:45:19;;;;;;;10.10;3.00;;;;;;;;;;5068850;28;20055;-74
2022/11/15 04:47:45;;;;;;;6.03;2.70;;;;;;;;;;5068805;28;20028;-74
2022/11/15 04:50:13;;;;;;;5.97;2.97;;;;;;;;;;5068674;28;20040;-73
2022/11/15 04:52:39;;;;;;;5.85;2.83;;;;;;;;;;5061430;28;20031;-75
2022/11/15 04:55:05;;;;;;;4.53;2.00;;;;;;;;;;5066653;28;20665;-74
2022/11/15 04:57:31;;;;;;;8.43;2.85;;;;;;;;;;5065827;28;20036;-74
2022/11/15 04:59:57;;;;;;;5.07;2.45;;;;;;;;;;5065461;28;20032;-74
2022/11/15 05:02:23;;;;;;;6.63;2.78;;;;;;;;;;5071998;28;20028;-73
2022/11/15 05:04:49;;;;;;;7.65;3.13;;;;;;;;;;5059579;28;20605;-74
2022/11/15 05:07:15;;;;;;;9.13;3.42;;;;;;;;;;5062950;28;20032;-74
2022/11/15 05:09:41;;;;;;;9.23;3.65;;;;;;;;;;5066919;28;20028;-74
2022/11/15 05:12:07;;;;;;;8.85;4.93;;;;;;;;;;5067293;28;20037;-74
2022/11/15 05:14:33;;;;;;;14.75;8.50;;;;;;;;;;5068941;28;20468;-74
2022/11/15 05:16:59;;;;;;;11.32;4.88;;;;;;;;;;5068989;28;20074;-74
2022/11/15 05:19:25;;;;;;;10.75;3.40;;;;;;;;;;5053109;28;20044;-74
2022/11/15 05:21:51;;;;;;;10.95;4.60;;;;;;;;;;5062212;28;20068;-74
2022/11/15 05:24:17;;;;;;;9.98;5.05;;;;;;;;;;5068792;28;20428;-73
2022/11/15 05:26:43;;;;;;;10.32;4.05;;;;;;;;;;5069499;28;20066;-74
2022/11/15 05:29:10;;;;;;;10.93;4.30;;;;;;;;;;5074529;28;20028;-74
2022/11/15 05:31:38;;;;;;;11.20;3.78;;;;;;;;;;5062702;28;20417;-74
2022/11/15 05:34:05;;;;;;;7.18;3.78;;;;;;;;;;5068325;28;20036;-74
2022/11/15 05:36:38;;;;;;;9.85;4.65;;;;;;;;;;5067128;28;20050;-74
2022/11/15 05:39:05;;;;;;;6.25;2.00;;;;;;;;;;5063534;28;20044;-73
2022/11/15 05:41:33;;;;;;;11.07;1.45;;;;;;;;;;5061212;28;20763;-74
2022/11/15 05:44:00;;;;;;;7.70;2.78;;;;;;;;;;5077301;28;20107;-74
2022/11/15 05:46:26;;;;;;;6.93;1.25;;;;;;;;;;5067104;28;20045;-74
2022/11/15 05:48:54;;;;;;;4.28;1.30;;;;;;;;;;5065722;28;20473;-74
2022/11/15 05:51:20;;;;;;;8.38;1.42;;;;;;;;;;5067647;28;20070;-74
2022/11/15 05:53:47;;;;;;;4.97;1.77;;;;;;;;;;5067239;28;20485;-74
2022/11/15 05:56:13;;;;;;;4.40;1.48;;;;;;;;;;5067262;28;20036;-73
2022/11/15 05:58:39;;;;;;;6.18;2.50;;;;;;;;;;5069420;28;20034;-74
2022/11/15 06:01:05;;;;;;;9.75;3.25;;;;;;;;;;5064135;28;20087;-74
2022/11/15 06:03:31;;;;;;;9.32;3.60;;;;;;;;;;5069797;28;20028;-74
2022/11/15 06:05:57;;;;;;;44.85;18.27;;;;;;;;;;5063848;28;20037;-73
2022/11/15 06:08:23;;;;;;;32.03;13.35;;;;;;;;;;5067039;28;20029;-73
2022/11/15 06:10:49;;;;;;;15.43;6.60;;;;;;;;;;5056364;28;20076;-74
2022/11/15 06:13:15;;;;;;;14.32;5.72;;;;;;;;;;5064874;28;20032;-74
2022/11/15 06:15:41;;;;;;;9.23;4.75;;;;;;;;;;5066712;28;20032;-74
2022/11/15 06:18:07;;;;;;;10.40;4.03;;;;;;;;;;5070852;28;20069;-74
2022/11/15 06:20:33;;;;;;;9.38;4.93;;;;;;;;;;5061222;28;20408;-74
2022/11/15 06:23:03;;;;;;;13.70;6.75;;;;;;;;;;5060729;28;20075;-74
2022/11/15 06:25:30;;;;;;;8.02;4.30;;;;;;;;;;5064845;28;20028;-73
2022/11/15 06:27:56;;;;;;;12.95;4.90;;;;;;;;;;5069790;28;20035;-74
2022/11/15 06:30:23;;;;;;;12.02;5.07;;;;;;;;;;5066543;28;20500;-74
2022/11/15 06:32:49;;;;;;;11.15;4.75;;;;;;;;;;5061917;28;20553;-74
2022/11/15 06:35:15;;;;;;;8.07;2.90;;;;;;;;;;5066060;28;20044;-74
2022/11/15 06:37:41;;;;;;;14.45;5.28;;;;;;;;;;5061641;28;20420;-74
2022/11/15 06:40:08;;;;;;;10.82;4.63;;;;;;;;;;5066608;28;20037;-74
2022/11/15 06:42:34;;;;;;;17.52;5.28;;;;;;;;;;5067987;28;20032;-74
2022/11/15 06:45:00;;;;;;;10.20;4.63;;;;;;;;;;5072636;28;20137;-75
2022/11/15 06:47:26;;;;;;;10.05;4.47;;;;;;;;;;5062639;28;20474;-75
2022/11/15 06:49:52;;;;;;;15.88;8.35;;;;;;;;;;5069314;28;20100;-74
2022/11/15 06:52:19;;;;;;;13.45;6.03;;;;;;;;;;5068378;28;20143;-74
2022/11/15 06:54:45;;;;;;;22.90;13.40;;;;;;;;;;5066459;28;20036;-75
2022/11/15 06:57:11;;;;;;;17.50;11.45;;;;;;;;;;5062423;28;20037;-74
2022/11/15 06:59:37;;;;;;;13.63;5.68;;;;;;;;;;5079720;28;20499;-75
2022/11/15 07:02:04;;;;;;;9.13;4.53;;;;;;;;;;5067571;28;20561;-75
2022/11/15 07:04:30;;;;;;;10.52;4.35;;;;;;;;;;5072171;28;20025;-74
2022/11/15 07:06:56;;;;;;;12.48;5.07;;;;;;;;;;5065913;28;20029;-75
2022/11/15 07:09:22;;;;;;;11.35;6.13;;;;;;;;;;5061488;28;20031;-74
2022/11/15 07:11:48;;;;;;;13.23;5.78;;;;;;;;;;5066046;28;20511;-74
2022/11/15 07:14:14;;;;;;;6.07;3.40;;;;;;;;;;5063198;28;20029;-75
2022/11/15 07:16:40;;;;;;;6.53;1.58;;;;;;;;;;5069761;28;20150;-74
2022/11/15 07:19:06;;;;;;;5.22;1.80;;;;;;;;;;5067927;28;20119;-74
2022/11/15 07:21:33;;;;;;;5.70;1.85;;;;;;;;;;5063248;28;20043;-75
2022/11/15 07:23:59;;;;;;;2.85;1.10;;;;;;;;;;5065014;28;20028;-75
2022/11/15 07:26:25;;;;;;;5.40;1.80;;;;;;;;;;5067751;28;20046;-74
2022/11/15 07:28:51;;;;;;;4.85;1.80;;;;;;;;;;5058797;28;20047;-74
2022/11/15 07:31:17;;;;;;;6.97;3.55;;;;;;;;;;5069828;28;20032;-74
2022/11/15 07:33:42;;;;;;;6.80;2.20;;;;;;;;;;5064205;28;20036;-74
2022/11/15 07:36:09;;;;;;;8.98;2.92;;;;;;;;;;5070422;28;20033;-75
2022/11/15 07:38:36;;;;;;;5.72;2.78;;;;;;;;;;5067908;28;20090;-75
2022/11/15 07:41:03;;;;;;;4.38;1.48;;;;;;;;;;5063532;28;20846;-75
2022/11/15 07:43:30;;;;;;;3.45;1.42;;;;;;;;;;5058482;28;20417;-74
2022/11/15 07:45:56;;;;;;;5.28;1.95;;;;;;;;;;5069721;28;20036;-74
2022/11/15 07:48:23;;;;;;;6.72;2.50;;;;;;;;;;5069837;28;20044;-74
2022/11/15 07:50:49;;;;;;;12.85;4.68;;;;;;;;;;5056671;28;20032;-74
2022/11/15 07:53:15;;;;;;;12.95;4.32;;;;;;;;;;5068982;28;20047;-74
2022/11/15 07:55:42;;;;;;;7.20;3.78;;;;;;;;;;5063731;28;20166;-75
2022/11/15 07:58:09;;;;;;;12.10;4.55;;;;;;;;;;5065514;28;20123;-74
2022/11/15 08:00:36;;;;;;;8.55;3.50;;;;;;;;;;5070211;28;20064;-75
2022/11/15 08:03:11;;;;;;;7.82;2.78;;;;;;;;;;5067475;28;20476;-74
2022/11/15 08:05:38;;;;;;;4.95;1.15;;;;;;;;;;5066819;28;20501;-74
2022/11/15 08:08:04;;;;;;;5.68;1.48;;;;;;;;;;5070697;28;20024;-74
2022/11/15 08:10:30;;;;;;;6.57;1.60;;;;;;;;;;5065668;28;20033;-75
2022/11/15 08:13:04;;;;;;;10.18;3.10;;;;;;;;;;5069902;28;20036;-74
2022/11/15 08:15:30;;;;;;;8.23;2.22;;;;;;;;;;5066455;28;20041;-74
2022/11/15 08:17:57;;;;;;;6.80;2.10;;;;;;;;;;5067644;28;20029;-74
2022/11/15 08:20:23;;;;;;;8.00;2.35;;;;;;;;;;5063182;28;20524;-74
2022/11/15 08:22:49;;;;;;;6.15;2.20;;;;;;;;;;5064224;28;20496;-75
2022/11/15 08:25:16;;;;;;;5.68;2.10;;;;;;;;;;5064694;28;20107;-74
2022/11/15 08:27:42;;;;;;;6.53;2.00;;;;;;;;;;5066682;28;20082;-75
2022/11/15 08:30:08;;;;;;;7.30;2.13;;;;;;;;;;5060760;28;20465;-74
2022/11/15 08:32:34;;;;;;;5.72;2.03;;;;;;;;;;5067934;28;20144;-74
2022/11/15 08:35:00;;;;;;;7.32;2.55;;;;;;;;;;5067114;28;20482;-74
2022/11/15 08:37:26;;;;;;;7.22;1.55;;;;;;;;;;5066918;28;20116;-74
2022/11/15 08:39:52;;;;;;;6.78;1.80;;;;;;;;;;5066317;28;20036;-74
2022/11/15 08:42:18;;;;;;;5.28;1.90;;;;;;;;;;5060720;28;20024;-74
2022/11/15 08:44:44;;;;;;;4.68;1.73;;;;;;;;;;5064936;28;20064;-74
2022/11/15 08:47:16;;;;;;;3.78;1.45;;;;;;;;;;5060145;28;20032;-74
2022/11/15 08:49:42;;;;;;;29.35;6.63;;;;;;;;;;5063323;28;20025;-74
2022/11/15 08:52:08;;;;;;;47.97;10.82;;;;;;;;;;5070178;28;20790;-74
2022/11/15 08:54:34;;;;;;;31.85;8.23;;;;;;;;;;5070181;28;20047;-74
2022/11/15 08:57:00;;;;;;;15.40;4.50;;;;;;;;;;5070562;28;20037;-74
2022/11/15 08:59:26;;;;;;;4.70;1.40;;;;;;;;;;5068347;28;20040;-74
2022/11/15 09:01:52;;;;;;;6.18;1.52;;;;;;;;;;5076515;28;20119;-74
2022/11/15 09:04:18;;;;;;;17.90;6.15;;;;;;;;;;5060994;28;20036;-74
2022/11/15 09:06:44;;;;;;;17.05;8.15;;;;;;;;;;5062046;28;20028;-74
2022/11/15 09:09:10;;;;;;;11.10;4.35;;;;;;;;;;5065286;28;20471;-74
2022/11/15 09:11:36;;;;;;;9.70;3.50;;;;;;;;;;5065140;28;20036;-75
2022/11/15 09:14:02;;;;;;;8.98;2.72;;;;;;;;;;5065399;28;20032;-74
2022/11/15 09:16:28;;;;;;;7.47;2.60;;;;;;;;;;5064323;28;20033;-74
2022/11/15 09:18:54;;;;;;;8.93;3.15;;;;;;;;;;5062007;28;20049;-74
2022/11/15 09:21:20;;;;;;;8.93;2.72;;;;;;;;;;5062608;28;20060;-75
2022/11/15 09:23:46;;;;;;;7.30;2.72;;;;;;;;;;5065578;28;20141;-74
2022/11/15 09:26:13;;;;;;;7.75;2.15;;;;;;;;;;5064486;28;20066;-74
2022/11/15 09:28:41;;;;;;;7.22;2.30;;;;;;;;;;5059202;28;20417;-74
2022/11/15 09:31:08;;;;;;;7.38;3.08;;;;;;;;;;5066647;28;20029;-74
2022/11/15 09:33:34;;;;;;;5.63;2.35;;;;;;;;;;5066601;28;20047;-74
2022/11/15 09:36:01;;;;;;;6.93;2.70;;;;;;;;;;5056625;28;20028;-75
2022/11/15 09:38:27;;;;;;;10.02;2.20;;;;;;;;;;5067013;28;20036;-74
2022/11/15 09:40:58;;;;;;;9.98;2.67;;;;;;;;;;5069104;28;20516;-74
2022/11/15 09:43:24;;;;;;;9.30;2.83;;;;;;;;;;5068683;28;20029;-74
2022/11/15 09:46:03;;;;;;;8.82;4.13;;;;;;;;;;5067046;28;20483;-74
2022/11/15 09:48:36;;;;;;;13.27;3.63;;;;;;;;;;5067050;28;20029;-74
2022/11/15 09:51:04;;;;;;;5.05;2.00;;;;;;;;;;5061519;28;20135;-74
2022/11/15 09:53:38;;;;;;;7.13;2.33;;;;;;;;;;5059034;28;20162;-74
2022/11/15 09:56:06;;;;;;;5.22;2.00;;;;;;;;;;5064979;28;20824;-74
2022/11/15 09:58:32;;;;;;;6.50;2.08;;;;;;;;;;5066464;28;20035;-74
2022/11/15 10:01:00;;;;;;;7.68;2.38;;;;;;;;;;5063475;28;20036;-75
2022/11/15 10:03:36;;;;;;;8.02;2.28;;;;;;;;;;5060491;28;20120;-74
2022/11/15 10:06:03;;;;;;;6.10;2.00;;;;;;;;;;5063203;28;20135;-75
2022/11/15 10:08:41;;;;;;;7.15;2.25;;;;;;;;;;5063148;28;20024;-74
2022/11/15 10:11:10;;;;;;;6.63;2.45;;;;;;;;;;5055536;28;20032;-74
2022/11/15 10:13:37;;;;;;;11.93;2.60;;;;;;;;;;5059638;28;20517;-74
2022/11/15 10:16:22;;;;;;;10.93;3.05;;;;;;;;;;5066899;28;20155;-74
2022/11/15 10:18:54;;;;;;;10.43;3.35;;;;;;;;;;5054734;28;20044;-74
2022/11/15 10:21:23;;;;;;;8.40;3.25;;;;;;;;;;5058493;28;20068;-74
2022/11/15 10:23:49;;;;;;;12.60;3.38;;;;;;;;;;5063484;28;20029;-74
2022/11/15 10:26:16;;;;;;;13.00;3.40;;;;;;;;;;5054866;28;20043;-74
2022/11/15 10:28:42;;;;;;;9.30;3.25;;;;;;;;;;5058858;28;20034;-74
2022/11/15 10:31:25;;;;;;;10.90;4.03;;;;;;;;;;5060881;28;20070;-74
2022/11/15 10:33:52;;;;;;;8.57;4.07;;;;;;;;;;5066115;28;20032;-74
2022/11/15 10:36:19;;;;;;;12.23;4.30;;;;;;;;;;5065666;28;20037;-74
2022/11/15 10:38:49;;;;;;;10.65;3.72;;;;;;;;;;5063981;28;20106;-74
2022/11/15 10:41:16;;;;;;;13.45;5.10;;;;;;;;;;5065360;28;20036;-74
2022/11/15 10:43:42;;;;;;;12.52;5.28;;;;;;;;;;5064152;28;20059;-74
2022/11/15 10:46:25;;;;;;;21.20;4.30;;;;;;;;;;5061374;28;20044;-74
2022/11/15 10:48:51;;;;;;;14.18;4.75;;;;;;;;;;5062845;28;20070;-75
2022/11/15 10:51:22;;;;;;;13.13;5.03;;;;;;;;;;5072117;28;20142;-74
2022/11/15 10:53:48;;;;;;;11.00;4.80;;;;;;;;;;5060693;28;20024;-74
2022/11/15 10:56:18;;;;;;;10.57;4.50;;;;;;;;;;5064595;28;20032;-74
2022/11/15 10:58:46;;;;;;;7.45;4.40;;;;;;;;;;5061809;28;20063;-74
2022/11/15 11:01:17;;;;;;;11.93;4.35;;;;;;;;;;5059892;28;20032;-74
2022/11/15 11:03:44;;;;;;;8.30;4.00;;;;;;;;;;5056732;28;20108;-74
2022/11/15 11:06:12;;;;;;;11.02;4.95;;;;;;;;;;5063384;28;20028;-74
2022/11/15 11:08:38;;;;;;;11.05;4.28;;;;;;;;;;5065006;28;20029;-74
2022/11/15 11:11:05;;;;;;;15.07;5.75;;;;;;;;;;5065674;28;20064;-74
2022/11/15 11:13:39;;;;;;;11.30;5.53;;;;;;;;;;5071012;28;20032;-74
2022/11/15 11:16:17;;;;;;;12.70;5.60;;;;;;;;;;5067901;28;20040;-74
2022/11/15 11:19:00;;;;;;;15.90;7.15;;;;;;;;;;5070499;28;20562;-74
2022/11/15 11:21:37;;;;;;;12.75;6.25;;;;;;;;;;5059280;28;20111;-74
2022/11/15 11:24:06;;;;;;;16.63;6.65;;;;;;;;;;5062919;28;20078;-74
2022/11/15 11:26:50;;;;;;;15.32;6.38;;;;;;;;;;5069617;28;20033;-74
2022/11/15 11:29:31;;;;;;;14.00;6.15;;;;;;;;;;5069909;28;20149;-74
2022/11/15 11:32:02;;;;;;;14.18;6.35;;;;;;;;;;5075574;28;20044;-74
2022/11/15 11:34:34;;;;;;;8.70;4.85;;;;;;;;;;5067090;28;20055;-74
2022/11/15 11:37:04;;;;;;;9.07;4.40;;;;;;;;;;5070806;28;20723;-74
2022/11/15 11:39:44;;;;;;;9.30;4.07;;;;;;;;;;5067776;28;20048;-73
2022/11/15 11:42:14;;;;;;;10.73;3.67;;;;;;;;;;5065089;28;20497;-74
2022/11/15 11:44:49;;;;;;;8.60;4.53;;;;;;;;;;5067426;28;20405;-74
2022/11/15 11:47:18;;;;;;;11.65;4.35;;;;;;;;;;5066416;28;20477;-74
2022/11/15 11:49:47;;;;;;;9.27;4.80;;;;;;;;;;5061848;28;20021;-75
2022/11/15 11:52:19;;;;;;;11.98;5.22;;;;;;;;;;5063185;28;20133;-75
2022/11/15 11:54:59;;;;;;;12.13;4.97;;;;;;;;;;5068603;28;20031;-74
2022/11/15 11:57:25;;;;;;;13.82;4.63;;;;;;;;;;5065390;28;20044;-74
2022/11/15 12:00:01;;;;;;;9.90;4.93;;;;;;;;;;5072130;28;20033;-74
2022/11/15 12:02:29;;;;;;;9.55;5.20;;;;;;;;;;5071695;28;20612;-74
2022/11/15 12:05:01;;;;;;;15.07;6.28;;;;;;;;;;5067345;28;20103;-74
2022/11/15 12:07:33;;;;;;;18.15;6.18;;;;;;;;;;5067821;28;20032;-74
2022/11/15 12:10:01;;;;;;;13.98;6.20;;;;;;;;;;5067310;28;20087;-74
2022/11/15 12:12:47;;;;;;;13.65;5.78;;;;;;;;;;5068496;28;20560;-74
2022/11/15 12:15:19;;;;;;;12.90;5.38;;;;;;;;;;5067965;28;20028;-74
2022/11/15 12:17:45;;;;;;;13.80;6.07;;;;;;;;;;5064505;28;20025;-74
2022/11/15 12:20:16;;;;;;;12.40;5.72;;;;;;;;;;5065898;28;20041;-74
2022/11/15 12:22:45;;;;;;;10.63;5.38;;;;;;;;;;5062100;28;20028;-73
2022/11/15 12:25:20;;;;;;;14.20;7.00;;;;;;;;;;5068677;28;20941;-74
2022/11/15 12:28:09;;;;;;;17.45;7.72;;;;;;;;;;5057837;28;20028;-74
2022/11/15 12:30:46;;;;;;;15.40;5.78;;;;;;;;;;5076597;28;20025;-74
2022/11/15 12:33:30;;;;;;;22.10;5.35;;;;;;;;;;5071434;28;20040;-74
2022/11/15 12:36:01;;;;;;;9.38;5.22;;;;;;;;;;5063017;28;20127;-74
2022/11/15 12:38:46;;;;;;;12.52;5.30;;;;;;;;;;5065810;28;20501;-74
2022/11/15 12:41:13;;;;;;;19.60;7.03;;;;;;;;;;5068077;28;20457;-74
2022/11/15 12:43:40;;;;;;;13.55;5.63;;;;;;;;;;5063587;28;20029;-74
2022/11/15 12:46:11;;;;;;;13.38;5.30;;;;;;;;;;5064613;28;20429;-74
2022/11/15 12:48:37;;;;;;;14.65;5.32;;;;;;;;;;5063033;28;20041;-74
2022/11/15 12:51:03;;;;;;;12.07;4.97;;;;;;;;;;5067937;28;20474;-74
2022/11/15 12:53:31;;;;;;;12.77;5.45;;;;;;;;;;5059761;28;20036;-75
2022/11/15 12:56:18;;;;;;;15.80;4.72;;;;;;;;;;5063674;28;20083;-74
2022/11/15 12:58:45;;;;;;;11.25;4.30;;;;;;;;;;5068646;28;20115;-74
2022/11/15 13:01:37;;;;;;;11.63;5.13;;;;;;;;;;5068495;28;20048;-74
2022/11/15 13:04:12;;;;;;;12.77;5.15;;;;;;;;;;5070557;28;20378;-74
2022/11/15 13:06:49;;;;;;;12.68;5.68;;;;;;;;;;5068383;28;20099;-74
2022/11/15 13:09:37;;;;;;;10.65;5.43;;;;;;;;;;5070253;28;20032;-74
2022/11/15 13:12:04;;;;;;;14.07;5.55;;;;;;;;;;5061572;28;20052;-74
2022/11/15 13:14:48;;;;;;;11.23;5.78;;;;;;;;;;5058438;28;20488;-74
2022/11/15 13:17:20;;;;;;;14.20;6.47;;;;;;;;;;5059510;28;20808;-74
2022/11/15 13:19:47;;;;;;;22.15;8.23;;;;;;;;;;5063987;28;20054;-74
2022/11/15 13:24:59;;;;;;;69.15;51.83;;;;;;;;;;5060891;28;20113;-74
2022/11/15 13:27:25;;;;;;;14.40;8.27;;;;;;;;;;5067371;28;20032;-74
2022/11/15 13:29:52;;;;;;;15.13;8.23;;;;;;;;;;5063245;28;20025;-74
2022/11/15 13:32:19;;;;;;;19.67;9.82;;;;;;;;;;5059975;28;20115;-74
2022/11/15 13:34:48;;;;;;;16.67;8.38;;;;;;;;;;5062669;28;20652;-75
2022/11/15 13:37:20;;;;;;;19.08;9.65;;;;;;;;;;5059044;28;20033;-73
2022/11/15 13:39:46;;;;;;;14.88;6.15;;;;;;;;;;5063524;28;20056;-74
2022/11/15 13:42:16;;;;;;;13.57;6.45;;;;;;;;;;5059221;28;20075;-74
2022/11/15 13:44:55;;;;;;;16.25;7.10;;;;;;;;;;5060154;28;20086;-74
2022/11/15 13:47:21;;;;;;;16.90;6.93;;;;;;;;;;5064785;28;20047;-74
2022/11/15 13:49:47;;;;;;;12.68;6.43;;;;;;;;;;5061082;28;20029;-73
2022/11/15 13:52:16;;;;;;;20.77;6.75;;;;;;;;;;5060489;28;20056;-74
2022/11/15 13:54:57;;;;;;;11.98;5.90;;;;;;;;;;5063873;28;20103;-73
2022/11/15 13:57:25;;;;;;;14.23;6.18;;;;;;;;;;5062377;28;20040;-73
2022/11/15 14:00:00;;;;;;;11.80;6.10;;;;;;;;;;5061649;28;20730;-74
2022/11/15 14:02:28;;;;;;;15.02;6.28;;;;;;;;;;5066284;28;20086;-73
2022/11/15 14:05:15;;;;;;;21.20;8.88;;;;;;;;;;5061606;28;20863;-74
2022/11/15 14:07:52;;;;;;;63.85;53.20;;;;;;;;;;5060657;28;20501;-74
2022/11/15 14:10:32;;;;;;;26.33;19.88;;;;;;;;;;5062938;28;20051;-74
2022/11/15 14:12:58;;;;;;;32.10;20.65;;;;;;;;;;5063693;28;20032;-74
2022/11/15 14:15:37;;;;;;;16.17;9.52;;;;;;;;;;5063845;28;20032;-74
2022/11/15 14:18:04;;;;;;;14.75;7.90;;;;;;;;;;5067358;28;20036;-74
2022/11/15 14:20:37;;;;;;;11.80;7.38;;;;;;;;;;5065914;28;20033;-73
2022/11/15 14:23:05;;;;;;;16.42;7.38;;;;;;;;;;5062228;28;20074;-74
2022/11/15 14:25:35;;;;;;;15.45;6.57;;;;;;;;;;5063367;28;20029;-74
2022/11/15 14:28:16;;;;;;;13.52;7.35;;;;;;;;;;5064659;28;20523;-74
2022/11/15 14:30:46;;;;;;;12.60;6.57;;;;;;;;;;5057420;28;20099;-74
2022/11/15 14:33:32;;;;;;;10.35;6.80;;;;;;;;;;5063260;28;20632;-74
2022/11/15 14:35:59;;;;;;;14.32;7.45;;;;;;;;;;5065250;28;20044;-74
2022/11/15 14:38:25;;;;;;;15.32;6.13;;;;;;;;;;5064397;28;20064;-74
2022/11/15 14:40:52;;;;;;;12.30;6.32;;;;;;;;;;5066160;28;20100;-74
2022/11/15 14:43:18;;;;;;;11.93;6.38;;;;;;;;;;5066846;28;20052;-74
2022/11/15 14:45:44;;;;;;;14.30;6.85;;;;;;;;;;5065090;28;20070;-74
2022/11/15 14:48:10;;;;;;;12.93;8.07;;;;;;;;;;5062073;28;20036;-74
2022/11/15 14:50:36;;;;;;;16.95;7.53;;;;;;;;;;5069598;28;20025;-74
2022/11/15 14:53:02;;;;;;;14.82;6.72;;;;;;;;;;5063161;28;20473;-74
2022/11/15 14:55:34;;;;;;;15.32;7.35;;;;;;;;;;5063633;28;20098;-74
2022/11/15 14:58:02;;;;;;;;;;;;;;;;;;5060103;28;20032;-74